createdAt,value
2018-06-15T00:00:33.007Z,61.31
2018-06-15T00:03:01.220Z,61.00
2018-06-15T00:05:28.838Z,61.40
2018-06-15T00:07:56.474Z,60.83
2018-06-15T00:10:24.285Z,61.40
2018-06-15T00:12:51.940Z,61.27
2018-06-15T00:15:19.536Z,61.10
2018-06-15T00:17:47.429Z,61.16
2018-06-15T00:20:15.041Z,61.34
2018-06-15T00:22:42.625Z,61.65
2018-06-15T00:25:10.589Z,61.72
2018-06-15T00:27:38.260Z,61.30
2018-06-15T00:30:06.215Z,61.94
2018-06-15T00:32:34.166Z,61.33
2018-06-15T00:35:01.905Z,61.34
2018-06-15T00:37:29.618Z,61.70
2018-06-15T00:39:57.724Z,61.83
2018-06-15T00:42:25.381Z,61.76
2018-06-15T00:44:52.981Z,61.71
2018-06-15T00:47:21.273Z,61.92
2018-06-15T00:49:48.886Z,62.01
2018-06-15T00:52:16.525Z,62.04
2018-06-15T00:54:44.626Z,62.39
2018-06-15T00:57:23.441Z,62.50
2018-06-15T00:59:51.308Z,62.49
2018-06-15T01:02:18.901Z,62.48
2018-06-15T01:04:46.490Z,62.62
2018-06-15T01:07:14.582Z,63.38
2018-06-15T01:09:42.195Z,63.25
2018-06-15T01:12:09.856Z,62.93
2018-06-15T01:14:37.771Z,63.05
2018-06-15T01:17:05.444Z,63.50
2018-06-15T01:19:33.101Z,63.43
2018-06-15T01:22:01.098Z,63.54
2018-06-15T01:24:28.666Z,63.39
2018-06-15T01:26:56.289Z,63.25
2018-06-15T01:29:24.435Z,62.83
2018-06-15T01:31:52.097Z,63.07
2018-06-15T01:34:19.793Z,63.47
2018-06-15T01:36:47.782Z,63.49
2018-06-15T01:39:15.440Z,63.59
2018-06-15T01:41:43.083Z,63.23
2018-06-15T01:44:10.935Z,63.07
2018-06-15T01:46:38.602Z,63.72
2018-06-15T01:49:06.363Z,63.41
2018-06-15T01:51:34.246Z,63.57
2018-06-15T01:54:01.892Z,63.63
2018-06-15T01:56:29.506Z,63.59
2018-06-15T01:58:57.705Z,63.65
2018-06-15T02:01:25.471Z,63.73
2018-06-15T02:03:53.060Z,64.27
2018-06-15T02:06:21.069Z,63.73
2018-06-15T02:08:48.699Z,63.74
2018-06-15T02:11:16.289Z,63.97
2018-06-15T02:13:44.304Z,64.33
2018-06-15T02:16:11.986Z,63.71
2018-06-15T02:18:39.622Z,64.06
2018-06-15T02:21:07.693Z,63.68
2018-06-15T02:23:35.316Z,64.15
2018-06-15T02:26:02.936Z,64.28
2018-06-15T02:28:30.748Z,64.30
2018-06-15T02:30:58.393Z,63.76
2018-06-15T02:33:26.026Z,64.35
2018-06-15T02:35:54.034Z,64.08
2018-06-15T02:38:21.663Z,64.45
2018-06-15T02:40:49.260Z,64.74
2018-06-15T02:43:17.080Z,64.60
2018-06-15T02:45:44.716Z,64.54
2018-06-15T02:48:12.631Z,64.96
2018-06-15T02:50:40.596Z,64.46
2018-06-15T02:53:08.174Z,64.62
2018-06-15T02:55:35.938Z,64.83
2018-06-15T02:58:03.810Z,64.96
2018-06-15T03:00:31.520Z,64.85
2018-06-15T03:02:59.170Z,64.82
2018-06-15T03:05:27.086Z,64.76
2018-06-15T03:07:54.718Z,65.34
2018-06-15T03:10:22.384Z,65.31
2018-06-15T03:12:50.334Z,65.28
2018-06-15T03:15:18.065Z,65.04
2018-06-15T03:17:45.713Z,65.41
2018-06-15T03:20:13.653Z,65.53
2018-06-15T03:22:41.321Z,65.38
2018-06-15T03:25:08.980Z,65.54
2018-06-15T03:27:37.040Z,66.02
2018-06-15T03:30:04.762Z,65.84
2018-06-15T03:32:32.376Z,65.98
2018-06-15T03:35:00.494Z,66.20
2018-06-15T03:37:28.120Z,65.79
2018-06-15T03:39:55.715Z,66.12
2018-06-15T03:42:23.678Z,66.05
2018-06-15T03:44:51.283Z,65.64
2018-06-15T03:47:18.885Z,66.00
2018-06-15T03:49:46.888Z,66.21
2018-06-15T03:52:14.692Z,66.39
2018-06-15T03:54:42.355Z,66.20
2018-06-15T03:57:10.291Z,66.28
2018-06-15T03:59:37.901Z,66.32
2018-06-15T04:02:05.614Z,66.30
2018-06-15T04:04:33.595Z,65.94
2018-06-15T04:07:01.254Z,66.19
2018-06-15T04:09:28.862Z,66.34
2018-06-15T04:11:56.810Z,66.31
2018-06-15T04:14:24.435Z,66.13
2018-06-15T04:16:52.005Z,66.17
2018-06-15T04:19:19.964Z,66.49
2018-06-15T04:21:47.539Z,66.33
2018-06-15T04:24:15.170Z,66.53
2018-06-15T04:26:43.194Z,66.53
2018-06-15T04:29:10.877Z,66.19
2018-06-15T04:31:38.488Z,66.51
2018-06-15T04:34:06.439Z,66.74
2018-06-15T04:36:34.043Z,66.54
2018-06-15T04:39:01.723Z,66.32
2018-06-15T04:41:29.602Z,66.21
2018-06-15T04:43:57.259Z,66.69
2018-06-15T04:46:24.959Z,66.61
2018-06-15T04:48:52.965Z,66.74
2018-06-15T04:51:20.640Z,66.54
2018-06-15T04:53:48.426Z,66.41
2018-06-15T04:56:16.445Z,66.52
2018-06-15T04:58:44.058Z,66.44
2018-06-15T05:01:11.677Z,66.63
2018-06-15T05:03:39.620Z,66.52
2018-06-15T05:06:07.244Z,66.44
2018-06-15T05:08:34.892Z,66.24
2018-06-15T05:11:02.720Z,66.28
2018-06-15T05:13:30.436Z,66.13
2018-06-15T05:15:58.103Z,65.88
2018-06-15T05:18:25.993Z,65.91
2018-06-15T05:20:53.577Z,66.23
2018-06-15T05:23:21.189Z,66.32
2018-06-15T05:25:49.021Z,65.95
2018-06-15T05:28:16.661Z,66.03
2018-06-15T05:30:44.272Z,66.17
2018-06-15T05:33:12.488Z,66.16
2018-06-15T05:35:40.156Z,65.91
2018-06-15T05:38:07.781Z,66.23
2018-06-15T05:40:35.714Z,66.38
2018-06-15T05:43:03.331Z,65.96
2018-06-15T05:45:30.955Z,65.75
2018-06-15T05:47:58.822Z,66.31
2018-06-15T05:50:26.473Z,65.82
2018-06-15T05:52:54.100Z,65.74
2018-06-15T05:55:22.129Z,65.86
2018-06-15T05:57:49.947Z,65.69
2018-06-15T06:00:17.646Z,66.20
2018-06-15T06:02:45.329Z,65.93
2018-06-15T06:05:13.105Z,65.68
2018-06-15T06:07:40.815Z,65.76
2018-06-15T06:10:08.589Z,65.74
2018-06-15T06:12:36.262Z,65.64
2018-06-15T06:15:04.001Z,65.95
2018-06-15T06:17:31.860Z,65.73
2018-06-15T06:19:59.569Z,66.00
2018-06-15T06:22:27.385Z,65.65
2018-06-15T06:24:55.292Z,65.89
2018-06-15T06:27:23.018Z,65.51
2018-06-15T06:29:50.681Z,65.88
2018-06-15T06:32:18.470Z,65.75
2018-06-15T06:34:46.350Z,65.55
2018-06-15T06:37:13.961Z,65.39
2018-06-15T06:39:41.743Z,65.68
2018-06-15T06:42:09.457Z,65.73
2018-06-15T06:44:37.064Z,65.28
2018-06-15T06:47:04.851Z,65.37
2018-06-15T06:49:32.547Z,65.03
2018-06-15T06:52:00.190Z,65.32
2018-06-15T06:54:27.945Z,65.10
2018-06-15T06:56:55.920Z,65.16
2018-06-15T06:59:23.517Z,64.99
2018-06-15T07:01:51.377Z,65.38
2018-06-15T07:04:19.086Z,64.92
2018-06-15T07:06:46.660Z,64.76
2018-06-15T07:09:14.561Z,64.98
2018-06-15T07:11:42.393Z,64.45
2018-06-15T07:14:10.016Z,64.74
2018-06-15T07:16:37.720Z,64.18
2018-06-15T07:19:05.478Z,64.16
2018-06-15T07:21:33.196Z,64.47
2018-06-15T07:24:01.200Z,64.40
2018-06-15T07:26:29.010Z,63.82
2018-06-15T07:28:56.604Z,63.86
2018-06-15T07:31:24.493Z,63.58
2018-06-15T07:33:52.334Z,64.09
2018-06-15T07:36:19.957Z,63.71
2018-06-15T07:38:47.716Z,63.88
2018-06-15T07:41:15.634Z,63.47
2018-06-15T07:43:43.222Z,63.42
2018-06-15T07:46:10.994Z,63.16
2018-06-15T07:48:53.219Z,63.00
2018-06-15T07:51:21.048Z,62.53
2018-06-15T07:53:48.633Z,62.88
2018-06-15T07:56:16.393Z,62.87
2018-06-15T07:58:44.227Z,62.74
2018-06-15T08:01:11.825Z,62.96
2018-06-15T08:03:39.698Z,62.27
2018-06-15T08:06:07.553Z,61.97
2018-06-15T08:08:35.168Z,62.37
2018-06-15T08:11:03.083Z,62.26
2018-06-15T08:13:30.871Z,61.94
2018-06-15T08:15:58.518Z,62.14
2018-06-15T08:18:26.232Z,62.08
2018-06-15T08:20:53.941Z,61.99
2018-06-15T08:23:21.601Z,61.61
2018-06-15T08:25:49.474Z,61.42
2018-06-15T08:28:17.251Z,61.43
2018-06-15T08:30:44.933Z,61.47
2018-06-15T08:33:12.740Z,61.29
2018-06-15T08:35:40.494Z,61.16
2018-06-15T08:38:08.122Z,61.17
2018-06-15T08:40:35.898Z,60.80
2018-06-15T08:43:03.731Z,60.46
2018-06-15T08:45:31.293Z,60.06
2018-06-15T08:47:59.104Z,60.06
2018-06-15T08:50:26.908Z,60.41
2018-06-15T08:52:54.485Z,60.08
2018-06-15T08:55:22.354Z,59.79
2018-06-15T08:57:50.207Z,59.72
2018-06-15T09:00:18.005Z,59.71
2018-06-15T09:02:45.742Z,58.91
2018-06-15T09:05:13.552Z,58.92
2018-06-15T09:07:41.164Z,58.73
2018-06-15T09:10:08.934Z,58.71
2018-06-15T09:12:36.742Z,59.20
2018-06-15T09:15:04.360Z,58.96
2018-06-15T09:17:32.136Z,58.51
2018-06-15T09:19:59.964Z,58.49
2018-06-15T09:22:27.595Z,58.22
2018-06-15T09:24:55.301Z,58.16
2018-06-15T09:27:23.501Z,57.91
2018-06-15T09:29:51.210Z,57.85
2018-06-15T09:32:19.032Z,57.79
2018-06-15T09:34:46.772Z,57.51
2018-06-15T09:37:14.427Z,56.79
2018-06-15T09:39:42.268Z,57.02
2018-06-15T09:42:10.082Z,56.63
2018-06-15T09:44:37.674Z,56.59
2018-06-15T09:47:05.484Z,56.17
2018-06-15T09:49:33.172Z,56.26
2018-06-15T09:52:00.782Z,55.66
2018-06-15T09:54:28.556Z,54.82
2018-06-15T09:56:56.378Z,53.88
2018-06-15T09:59:23.967Z,53.62
2018-06-15T10:01:51.909Z,53.23
2018-06-15T10:04:19.631Z,53.08
2018-06-15T10:06:47.260Z,53.11
2018-06-15T10:09:15.112Z,52.27
2018-06-15T10:11:42.904Z,52.29
2018-06-15T10:14:10.569Z,52.45
2018-06-15T10:16:38.494Z,52.21
2018-06-15T10:19:06.171Z,51.50
2018-06-15T10:21:33.790Z,51.23
2018-06-15T10:24:01.612Z,51.32
2018-06-15T10:26:29.308Z,50.58
2018-06-15T10:28:56.884Z,51.04
2018-06-15T10:31:24.671Z,50.74
2018-06-15T10:33:52.389Z,51.24
2018-06-15T10:36:20.003Z,50.75
2018-06-15T10:38:47.788Z,51.01
2018-06-15T10:41:15.531Z,50.55
2018-06-15T10:43:43.157Z,50.20
2018-06-15T10:46:10.934Z,49.38
2018-06-15T10:48:38.720Z,49.08
2018-06-15T10:51:06.325Z,49.15
2018-06-15T10:53:34.135Z,48.69
2018-06-15T10:56:02.801Z,48.35
2018-06-15T10:58:30.373Z,48.64
2018-06-15T11:00:58.097Z,48.40
2018-06-15T11:03:26.105Z,47.84
2018-06-15T11:05:53.810Z,47.79
2018-06-15T11:08:21.640Z,48.06
2018-06-15T11:10:49.352Z,47.22
2018-06-15T11:13:16.938Z,47.19
2018-06-15T11:15:44.589Z,47.09
2018-06-15T11:18:12.428Z,46.14
2018-06-15T11:20:40.099Z,46.48
2018-06-15T11:23:07.764Z,46.59
2018-06-15T11:25:35.503Z,46.03
2018-06-15T11:28:03.146Z,46.28
2018-06-15T11:30:30.988Z,45.64
2018-06-15T11:32:58.734Z,45.78
2018-06-15T11:35:26.300Z,45.49
2018-06-15T11:37:54.111Z,45.46
2018-06-15T11:40:21.959Z,45.14
2018-06-15T11:42:49.546Z,45.08
2018-06-15T11:45:17.264Z,45.10
2018-06-15T11:47:45.103Z,45.34
2018-06-15T11:50:12.800Z,45.40
2018-06-15T11:52:40.584Z,44.76
2018-06-15T11:55:08.272Z,45.12
2018-06-15T11:57:35.859Z,44.94
2018-06-15T12:00:03.807Z,44.65
2018-06-15T12:02:31.714Z,43.91
2018-06-15T12:04:59.469Z,44.37
2018-06-15T12:07:27.245Z,44.26
2018-06-15T12:09:55.103Z,43.80
2018-06-15T12:12:22.736Z,44.02
2018-06-15T12:14:50.549Z,43.38
2018-06-15T12:17:18.325Z,43.00
2018-06-15T12:19:45.950Z,42.85
2018-06-15T12:22:13.761Z,43.01
2018-06-15T12:24:41.696Z,43.05
2018-06-15T12:27:09.279Z,42.39
2018-06-15T12:29:37.124Z,42.28
2018-06-15T12:32:04.908Z,41.73
2018-06-15T12:34:32.562Z,41.35
2018-06-15T12:37:00.331Z,42.04
2018-06-15T12:39:28.191Z,41.36
2018-06-15T12:41:55.815Z,41.52
2018-06-15T12:44:23.521Z,41.70
2018-06-15T12:46:51.290Z,41.67
2018-06-15T12:49:19.001Z,42.20
2018-06-15T12:51:46.716Z,41.95
2018-06-15T12:54:14.430Z,42.24
2018-06-15T12:56:42.023Z,41.60
2018-06-15T12:59:09.712Z,41.21
2018-06-15T13:01:37.549Z,41.76
2018-06-15T13:04:05.181Z,41.51
2018-06-15T13:06:33.254Z,41.56
2018-06-15T13:09:01.113Z,41.43
2018-06-15T13:11:28.700Z,42.14
2018-06-15T13:13:56.394Z,42.28
2018-06-15T13:16:24.163Z,41.84
2018-06-15T13:18:51.829Z,42.01
2018-06-15T13:21:19.585Z,42.56
2018-06-15T13:23:47.431Z,42.67
2018-06-15T13:26:15.037Z,42.60
2018-06-15T13:28:42.791Z,42.86
2018-06-15T13:31:10.606Z,43.09
2018-06-15T13:33:38.220Z,42.77
2018-06-15T13:36:05.982Z,42.74
2018-06-15T13:38:33.768Z,43.20
2018-06-15T13:41:01.424Z,43.22
2018-06-15T13:43:29.120Z,43.40
2018-06-15T13:45:56.879Z,43.81
2018-06-15T13:48:24.512Z,43.57
2018-06-15T13:50:52.312Z,44.11
2018-06-15T13:53:20.076Z,43.67
2018-06-15T13:55:47.687Z,44.00
2018-06-15T13:58:15.537Z,43.99
2018-06-15T14:00:43.416Z,43.49
2018-06-15T14:03:11.254Z,43.47
2018-06-15T14:05:38.941Z,43.75
2018-06-15T14:08:06.787Z,44.13
2018-06-15T14:10:34.464Z,43.62
2018-06-15T14:13:02.170Z,44.01
2018-06-15T14:15:29.852Z,43.56
2018-06-15T14:17:57.494Z,43.65
2018-06-15T14:20:25.271Z,43.92
2018-06-15T14:22:53.102Z,43.68
2018-06-15T14:25:20.713Z,43.77
2018-06-15T14:27:48.483Z,43.80
2018-06-15T14:30:16.228Z,43.64
2018-06-15T14:32:43.858Z,43.38
2018-06-15T14:35:11.492Z,43.85
2018-06-15T14:37:39.222Z,43.42
2018-06-15T14:40:06.946Z,43.35
2018-06-15T14:42:34.598Z,43.43
2018-06-15T14:45:02.363Z,43.23
2018-06-15T14:47:30.207Z,43.40
2018-06-15T14:49:58.060Z,43.42
2018-06-15T14:52:25.806Z,43.83
2018-06-15T14:54:53.418Z,43.46
2018-06-15T14:57:21.296Z,43.32
2018-06-15T14:59:49.093Z,43.28
2018-06-15T15:02:16.718Z,43.74
2018-06-15T15:04:44.466Z,43.41
2018-06-15T15:07:12.208Z,43.73
2018-06-15T15:09:39.968Z,43.45
2018-06-15T15:12:07.801Z,43.36
2018-06-15T15:14:35.591Z,43.48
2018-06-15T15:17:03.266Z,43.68
2018-06-15T15:19:31.103Z,43.65
2018-06-15T15:21:58.913Z,43.23
2018-06-15T15:24:26.555Z,42.79
2018-06-15T15:26:54.409Z,42.88
2018-06-15T15:29:22.324Z,42.93
2018-06-15T15:31:49.922Z,43.10
2018-06-15T15:34:17.715Z,42.51
2018-06-15T15:36:45.577Z,42.39
2018-06-15T15:39:13.138Z,42.00
2018-06-15T15:41:40.891Z,41.77
2018-06-15T15:44:08.892Z,41.93
2018-06-15T15:46:36.461Z,41.29
2018-06-15T15:49:04.424Z,41.29
2018-06-15T15:51:32.143Z,40.91
2018-06-15T15:53:59.709Z,41.05
2018-06-15T15:56:27.576Z,40.61
2018-06-15T15:58:55.409Z,40.09
2018-06-15T16:01:23.030Z,40.50
2018-06-15T16:03:50.828Z,40.64
2018-06-15T16:06:18.666Z,40.21
2018-06-15T16:08:46.302Z,40.18
2018-06-15T16:11:14.139Z,39.99
2018-06-15T16:13:41.972Z,39.80
2018-06-15T16:16:09.747Z,39.61
2018-06-15T16:18:37.634Z,39.11
2018-06-15T16:21:05.371Z,39.30
2018-06-15T16:23:33.040Z,39.71
2018-06-15T16:26:00.984Z,39.30
2018-06-15T16:28:28.761Z,39.84
2018-06-15T16:30:56.434Z,39.88
2018-06-15T16:33:24.163Z,39.58
2018-06-15T16:35:51.833Z,39.81
2018-06-15T16:38:19.425Z,40.03
2018-06-15T16:40:47.288Z,39.79
2018-06-15T16:43:15.158Z,39.81
2018-06-15T16:45:42.784Z,40.01
2018-06-15T16:48:10.526Z,40.28
2018-06-15T16:50:38.240Z,40.18
2018-06-15T16:53:05.838Z,40.17
2018-06-15T16:55:33.684Z,39.87
2018-06-15T16:58:01.554Z,40.11
2018-06-15T17:00:29.198Z,40.04
2018-06-15T17:02:57.078Z,40.28
2018-06-15T17:05:24.871Z,39.86
2018-06-15T17:07:52.537Z,40.00
2018-06-15T17:10:20.243Z,40.57
2018-06-15T17:12:48.362Z,40.32
2018-06-15T17:15:15.958Z,40.26
2018-06-15T17:17:43.761Z,40.16
2018-06-15T17:20:11.580Z,40.95
2018-06-15T17:22:39.238Z,40.79
2018-06-15T17:25:06.946Z,40.55
2018-06-15T17:27:34.843Z,40.68
2018-06-15T17:30:02.670Z,40.77
2018-06-15T17:32:30.442Z,41.14
2018-06-15T17:34:58.428Z,41.08
2018-06-15T17:37:26.016Z,41.40
2018-06-15T17:39:54.146Z,40.94
2018-06-15T17:42:22.066Z,40.89
2018-06-15T17:44:49.672Z,41.79
2018-06-15T17:47:17.506Z,41.76
2018-06-15T17:49:45.389Z,41.27
2018-06-15T17:52:13.110Z,41.89
2018-06-15T17:54:40.828Z,41.80
2018-06-15T17:57:08.521Z,41.83
2018-06-15T17:59:36.118Z,41.86
2018-06-15T18:02:04.084Z,41.74
2018-06-15T18:04:31.821Z,42.03
2018-06-15T18:06:59.441Z,42.35
2018-06-15T18:09:27.180Z,41.94
2018-06-15T18:11:55.231Z,42.09
2018-06-15T18:14:23.053Z,42.11
2018-06-15T18:16:50.766Z,42.13
2018-06-15T18:19:18.492Z,42.31
2018-06-15T18:21:46.191Z,42.75
2018-06-15T18:24:14.038Z,42.72
2018-06-15T18:26:41.852Z,42.72
2018-06-15T18:29:16.233Z,42.40
2018-06-15T18:31:44.081Z,42.88
2018-06-15T18:34:11.691Z,42.62
2018-06-15T18:36:39.468Z,42.85
2018-06-15T18:39:10.317Z,43.05
2018-06-15T18:41:37.925Z,43.23
2018-06-15T18:44:05.978Z,42.70
2018-06-15T18:46:33.762Z,42.72
2018-06-15T18:49:01.331Z,43.28
2018-06-15T18:51:29.189Z,43.17
2018-06-15T18:54:11.833Z,43.21
2018-06-15T18:56:39.473Z,42.91
2018-06-15T18:59:07.279Z,42.69
2018-06-15T19:01:34.864Z,43.22
2018-06-15T19:04:02.516Z,42.73
2018-06-15T19:06:30.164Z,42.96
2018-06-15T19:08:57.787Z,43.47
2018-06-15T19:11:25.438Z,42.93
2018-06-15T19:13:53.254Z,43.05
2018-06-15T19:16:21.159Z,43.53
2018-06-15T19:18:48.762Z,43.11
2018-06-15T19:21:16.390Z,43.40
2018-06-15T19:23:43.957Z,43.14
2018-06-15T19:26:11.583Z,43.34
2018-06-15T19:28:39.213Z,43.82
2018-06-15T19:31:06.892Z,43.55
2018-06-15T19:33:34.513Z,43.64
2018-06-15T19:36:02.405Z,44.00
2018-06-15T19:38:29.964Z,43.77
2018-06-15T19:40:57.691Z,43.99
2018-06-15T19:43:25.442Z,43.52
2018-06-15T19:45:53.158Z,43.85
2018-06-15T19:48:20.800Z,44.49
2018-06-15T19:50:48.583Z,44.48
2018-06-15T19:53:16.180Z,44.47
2018-06-15T19:55:43.831Z,44.57
2018-06-15T19:58:11.779Z,44.28
2018-06-15T20:00:40.011Z,44.68
2018-06-15T20:03:07.818Z,44.86
2018-06-15T20:05:35.536Z,45.24
2018-06-15T20:08:03.252Z,45.10
2018-06-15T20:10:31.949Z,45.51
2018-06-15T20:12:59.792Z,45.65
2018-06-15T20:15:27.492Z,45.28
2018-06-15T20:17:55.268Z,45.65
2018-06-15T20:20:23.276Z,45.86
2018-06-15T20:22:51.008Z,45.64
2018-06-15T20:25:18.676Z,45.87
2018-06-15T20:27:46.508Z,46.22
2018-06-15T20:30:14.196Z,46.56
2018-06-15T20:32:41.942Z,46.08
2018-06-15T20:35:09.808Z,46.10
2018-06-15T20:37:37.463Z,46.22
2018-06-15T20:40:05.237Z,46.78
2018-06-15T20:42:32.991Z,46.43
2018-06-15T20:45:00.596Z,46.56
2018-06-15T20:47:28.511Z,47.00
2018-06-15T20:49:56.324Z,46.88
2018-06-15T20:52:23.946Z,47.53
2018-06-15T20:54:51.928Z,47.48
2018-06-15T20:57:19.862Z,47.67
2018-06-15T20:59:47.485Z,47.81
2018-06-15T21:02:15.257Z,47.97
2018-06-15T21:04:43.032Z,47.61
2018-06-15T21:07:10.685Z,48.16
2018-06-15T21:09:38.407Z,48.19
2018-06-15T21:12:06.285Z,47.91
2018-06-15T21:14:33.971Z,48.00
2018-06-15T21:17:01.889Z,48.34
2018-06-15T21:19:29.793Z,48.65
2018-06-15T21:21:57.440Z,48.78
2018-06-15T21:24:25.286Z,48.49
2018-06-15T21:26:53.095Z,48.99
2018-06-15T21:29:20.962Z,48.97
2018-06-15T21:31:48.828Z,48.80
2018-06-15T21:34:16.478Z,49.48
2018-06-15T21:36:44.154Z,49.50
2018-06-15T21:39:12.095Z,49.27
2018-06-15T21:41:39.708Z,49.68
2018-06-15T21:44:07.323Z,49.75
2018-06-15T21:46:35.040Z,49.95
2018-06-15T21:49:02.638Z,49.58
2018-06-15T21:51:30.237Z,49.65
2018-06-15T21:53:57.928Z,49.95
2018-06-15T21:56:25.625Z,49.94
2018-06-15T21:58:53.616Z,50.03
2018-06-15T22:01:24.388Z,50.19
2018-06-15T22:03:52.174Z,50.65
2018-06-15T22:06:20.030Z,50.36
2018-06-15T22:08:47.736Z,50.37
2018-06-15T22:11:15.472Z,50.62
2018-06-15T22:13:43.373Z,50.71
2018-06-15T22:16:11.266Z,50.71
2018-06-15T22:18:38.904Z,50.63
2018-06-15T22:21:06.715Z,51.27
2018-06-15T22:23:34.498Z,50.94
2018-06-15T22:26:02.168Z,50.92
2018-06-15T22:28:30.108Z,51.25
2018-06-15T22:30:57.878Z,51.58
2018-06-15T22:33:25.713Z,51.17
2018-06-15T22:35:53.433Z,51.13
2018-06-15T22:38:21.361Z,51.77
2018-06-15T22:40:49.038Z,51.78
2018-06-15T22:43:16.968Z,51.75
2018-06-15T22:45:44.925Z,52.07
2018-06-15T22:48:12.605Z,51.75
2018-06-15T22:50:40.480Z,51.67
2018-06-15T22:53:08.667Z,52.03
2018-06-15T22:55:36.308Z,52.13
2018-06-15T22:58:04.244Z,52.39
2018-06-15T23:00:32.006Z,52.65
2018-06-15T23:02:59.681Z,52.55
2018-06-15T23:05:27.472Z,52.63
2018-06-15T23:07:55.152Z,52.83
2018-06-15T23:10:22.814Z,52.89
2018-06-15T23:12:50.734Z,53.11
2018-06-15T23:15:18.517Z,52.81
2018-06-15T23:17:46.158Z,53.02
2018-06-15T23:20:13.990Z,53.03
2018-06-15T23:22:42.206Z,52.77
2018-06-15T23:25:09.837Z,52.89
2018-06-15T23:27:37.609Z,53.03
2018-06-15T23:30:05.398Z,53.38
2018-06-15T23:32:32.983Z,53.43
2018-06-15T23:35:00.814Z,53.61
2018-06-15T23:37:28.712Z,53.47
2018-06-15T23:39:56.332Z,53.68
2018-06-15T23:42:24.190Z,53.22
2018-06-15T23:44:52.079Z,53.85
2018-06-15T23:47:19.698Z,53.92
2018-06-15T23:49:47.581Z,53.56
2018-06-15T23:52:15.364Z,53.69
2018-06-15T23:54:42.948Z,53.78
2018-06-15T23:57:10.849Z,54.16
2018-06-15T23:59:38.695Z,53.91
